Terminal Aerodrome Forecast
Issued by NWS

Home | Current Version | Previous Version | Graphics & Text | Print | Product List | Glossary On
Versions: 1 2 3 4 5 6 7 8 9 10 11 12 13 14 15 16 17 18 19 20 21 22 23 24 25 26 27 28 29 30 31 32 33 34 35 36 37
000
FTUS43 KLOT 071400 AAA
TAFMDW
TAF AMD
KMDW 071402Z 0714/0812 28009KT P6SM BKN017
      TEMPO 0714/0715 SCT017
     FM072000 06009KT P6SM SCT040 BKN250
     FM080100 24006KT P6SM SCT120 BKN200
     FM080900 26010KT P6SM SCT050 BKN100 PROB30 0809/0812 TSRA
      BKN100CB=

USA.gov is the U.S. government's official web portal to all federal, state and local government web resources and services.